sensor_id;sensor_type;location;lat;lon;timestamp;pressure;altitude;pressure_sealevel;temperature;humidity
9129;BME280;4599;50.906;6.786;2023-12-04T00:00:52;100206.06;;;-0.68;79.08
9129;BME280;4599;50.906;6.786;2023-12-04T00:04:53;100196.22;;;-0.76;79.72
9129;BME280;4599;50.906;6.786;2023-12-04T00:08:55;100183.50;;;-0.71;79.42
9129;BME280;4599;50.906;6.786;2023-12-04T00:12:58;100164.16;;;-0.69;79.24
9129;BME280;4599;50.906;6.786;2023-12-04T00:16:59;100166.66;;;-0.69;79.01
9129;BME280;4599;50.906;6.786;2023-12-04T00:21:01;100164.28;;;-0.74;79.31
9129;BME280;4599;50.906;6.786;2023-12-04T00:25:03;100166.97;;;-0.80;79.27
9129;BME280;4599;50.906;6.786;2023-12-04T00:29:06;100164.28;;;-0.74;79.08
9129;BME280;4599;50.906;6.786;2023-12-04T00:33:09;100154.41;;;-0.81;79.00
9129;BME280;4599;50.906;6.786;2023-12-04T00:37:11;100155.22;;;-0.79;78.72
9129;BME280;4599;50.906;6.786;2023-12-04T00:41:13;100141.91;;;-0.83;78.78
9129;BME280;4599;50.906;6.786;2023-12-04T00:45:16;100132.75;;;-0.85;78.94
9129;BME280;4599;50.906;6.786;2023-12-04T00:49:17;100136.88;;;-0.83;78.61
9129;BME280;4599;50.906;6.786;2023-12-04T00:53:19;100121.97;;;-0.89;78.03
9129;BME280;4599;50.906;6.786;2023-12-04T00:57:20;100125.16;;;-0.84;78.32
9129;BME280;4599;50.906;6.786;2023-12-04T01:01:23;100111.97;;;-0.92;78.81
9129;BME280;4599;50.906;6.786;2023-12-04T01:05:25;100111.91;;;-0.89;78.54
9129;BME280;4599;50.906;6.786;2023-12-04T01:09:26;100107.81;;;-0.93;78.97
9129;BME280;4599;50.906;6.786;2023-12-04T01:13:28;100109.44;;;-0.92;78.59
9129;BME280;4599;50.906;6.786;2023-12-04T01:17:31;100093.31;;;-0.85;78.34
9129;BME280;4599;50.906;6.786;2023-12-04T01:21:33;100084.25;;;-0.90;78.53
9129;BME280;4599;50.906;6.786;2023-12-04T01:25:34;100091.03;;;-0.92;78.87
9129;BME280;4599;50.906;6.786;2023-12-04T01:29:36;100089.28;;;-0.90;78.04
9129;BME280;4599;50.906;6.786;2023-12-04T01:33:39;100084.38;;;-0.93;78.69
9129;BME280;4599;50.906;6.786;2023-12-04T01:37:41;100071.88;;;-0.96;77.71
9129;BME280;4599;50.906;6.786;2023-12-04T01:41:42;100086.78;;;-0.90;78.23
9129;BME280;4599;50.906;6.786;2023-12-04T01:45:44;100084.25;;;-0.90;78.58
9129;BME280;4599;50.906;6.786;2023-12-04T01:49:47;100068.44;;;-0.94;78.23
9129;BME280;4599;50.906;6.786;2023-12-04T01:53:49;100071.06;;;-0.97;78.52
9129;BME280;4599;50.906;6.786;2023-12-04T01:57:52;100065.97;;;-0.95;79.11
9129;BME280;4599;50.906;6.786;2023-12-04T02:01:54;100061.72;;;-0.93;78.51
9129;BME280;4599;50.906;6.786;2023-12-04T02:05:59;100046.72;;;-0.96;77.48
9129;BME280;4599;50.906;6.786;2023-12-04T02:10:00;100055.78;;;-0.91;77.52
9129;BME280;4599;50.906;6.786;2023-12-04T02:14:02;100056.78;;;-0.96;77.64
9129;BME280;4599;50.906;6.786;2023-12-04T02:18:04;100054.69;;;-0.82;76.86
9129;BME280;4599;50.906;6.786;2023-12-04T02:22:07;100054.06;;;-0.89;76.41
9129;BME280;4599;50.906;6.786;2023-12-04T02:26:15;100052.50;;;-0.93;77.05
9129;BME280;4599;50.906;6.786;2023-12-04T02:30:19;100048.28;;;-0.92;76.51
9129;BME280;4599;50.906;6.786;2023-12-04T02:34:23;100040.59;;;-0.88;76.98
9129;BME280;4599;50.906;6.786;2023-12-04T02:38:25;100031.53;;;-0.93;76.92
9129;BME280;4599;50.906;6.786;2023-12-04T02:42:29;100017.41;;;-0.97;76.67
9129;BME280;4599;50.906;6.786;2023-12-04T02:46:30;100021.50;;;-0.93;75.86
9129;BME280;4599;50.906;6.786;2023-12-04T02:50:32;100022.41;;;-0.96;76.50
9129;BME280;4599;50.906;6.786;2023-12-04T02:54:34;100015.75;;;-0.98;76.26
9129;BME280;4599;50.906;6.786;2023-12-04T02:58:37;100018.03;;;-0.91;76.45
9129;BME280;4599;50.906;6.786;2023-12-04T03:02:38;100011.47;;;-0.95;75.26
9129;BME280;4599;50.906;6.786;2023-12-04T03:06:40;99992.22;;;-0.96;74.84
9129;BME280;4599;50.906;6.786;2023-12-04T03:10:41;99998.78;;;-0.92;75.02
9129;BME280;4599;50.906;6.786;2023-12-04T03:14:44;99992.31;;;-0.99;74.95
9129;BME280;4599;50.906;6.786;2023-12-04T03:18:45;99988.94;;;-0.98;75.05
9129;BME280;4599;50.906;6.786;2023-12-04T03:22:47;99977.19;;;-0.97;75.49
9129;BME280;4599;50.906;6.786;2023-12-04T03:26:49;99977.28;;;-1.01;75.66
9129;BME280;4599;50.906;6.786;2023-12-04T03:30:51;99967.25;;;-1.02;75.47
9129;BME280;4599;50.906;6.786;2023-12-04T03:34:53;99959.59;;;-0.99;75.88
9129;BME280;4599;50.906;6.786;2023-12-04T03:38:54;99954.97;;;-1.11;75.42
9129;BME280;4599;50.906;6.786;2023-12-04T03:42:56;99950.53;;;-1.03;75.57
9129;BME280;4599;50.906;6.786;2023-12-04T03:46:59;99956.84;;;-1.18;76.55
9129;BME280;4599;50.906;6.786;2023-12-04T03:51:01;99948.16;;;-1.08;75.95
9129;BME280;4599;50.906;6.786;2023-12-04T03:55:03;99954.88;;;-1.08;75.46
9129;BME280;4599;50.906;6.786;2023-12-04T03:59:05;99947.44;;;-1.11;75.55
9129;BME280;4599;50.906;6.786;2023-12-04T04:03:08;99939.91;;;-1.13;75.86
9129;BME280;4599;50.906;6.786;2023-12-04T04:07:11;99939.97;;;-1.14;75.24
9129;BME280;4599;50.906;6.786;2023-12-04T04:11:12;99929.34;;;-1.22;75.79
9129;BME280;4599;50.906;6.786;2023-12-04T04:15:14;99928.31;;;-1.17;75.43
9129;BME280;4599;50.906;6.786;2023-12-04T04:19:17;99915.59;;;-1.12;74.79
9129;BME280;4599;50.906;6.786;2023-12-04T04:23:19;99917.50;;;-1.19;75.71
9129;BME280;4599;50.906;6.786;2023-12-04T04:27:20;99897.34;;;-1.17;75.59
9129;BME280;4599;50.906;6.786;2023-12-04T04:31:22;99909.22;;;-1.22;75.66
9129;BME280;4599;50.906;6.786;2023-12-04T04:35:25;99906.81;;;-1.25;75.92
9129;BME280;4599;50.906;6.786;2023-12-04T04:39:26;99905.06;;;-1.23;75.45
9129;BME280;4599;50.906;6.786;2023-12-04T04:43:28;99907.00;;;-1.31;75.93
9129;BME280;4599;50.906;6.786;2023-12-04T04:47:29;99916.97;;;-1.28;75.56
9129;BME280;4599;50.906;6.786;2023-12-04T04:51:32;99901.81;;;-1.27;75.43
9129;BME280;4599;50.906;6.786;2023-12-04T04:55:34;99868.69;;;-1.39;75.44
9129;BME280;4599;50.906;6.786;2023-12-04T04:59:49;99887.75;;;-1.32;76.30
9129;BME280;4599;50.906;6.786;2023-12-04T05:08:49;99888.50;;;-1.30;76.63
9129;BME280;4599;50.906;6.786;2023-12-04T05:12:51;99886.81;;;-1.30;76.04
9129;BME280;4599;50.906;6.786;2023-12-04T05:16:52;99884.38;;;-1.31;76.62
9129;BME280;4599;50.906;6.786;2023-12-04T05:20:54;99877.59;;;-1.29;76.72
9129;BME280;4599;50.906;6.786;2023-12-04T05:24:56;99876.75;;;-1.28;77.04
9129;BME280;4599;50.906;6.786;2023-12-04T05:28:59;99868.38;;;-1.29;77.06
9129;BME280;4599;50.906;6.786;2023-12-04T05:33:01;99860.69;;;-1.24;76.77
9129;BME280;4599;50.906;6.786;2023-12-04T05:37:03;99861.50;;;-1.24;76.60
9129;BME280;4599;50.906;6.786;2023-12-04T05:41:06;99866.28;;;-1.16;76.85
9129;BME280;4599;50.906;6.786;2023-12-04T05:45:08;99862.19;;;-1.19;76.52
9129;BME280;4599;50.906;6.786;2023-12-04T05:49:10;99861.16;;;-1.13;76.41
9129;BME280;4599;50.906;6.786;2023-12-04T05:53:12;99860.41;;;-1.15;76.90
9129;BME280;4599;50.906;6.786;2023-12-04T05:57:15;99848.75;;;-1.18;76.79
9129;BME280;4599;50.906;6.786;2023-12-04T06:01:16;99855.34;;;-1.14;76.57
9129;BME280;4599;50.906;6.786;2023-12-04T06:05:18;99844.69;;;-1.22;76.55
9129;BME280;4599;50.906;6.786;2023-12-04T06:09:20;99843.81;;;-1.21;76.30
9129;BME280;4599;50.906;6.786;2023-12-04T06:13:23;99840.31;;;-1.17;76.53
9129;BME280;4599;50.906;6.786;2023-12-04T06:17:24;99839.41;;;-1.14;76.03
9129;BME280;4599;50.906;6.786;2023-12-04T06:21:26;99817.50;;;-1.11;76.17
9129;BME280;4599;50.906;6.786;2023-12-04T06:25:28;99812.72;;;-1.18;76.58
9129;BME280;4599;50.906;6.786;2023-12-04T06:29:32;99796.09;;;-1.22;76.66
9129;BME280;4599;50.906;6.786;2023-12-04T06:33:34;99778.53;;;-1.24;77.08
9129;BME280;4599;50.906;6.786;2023-12-04T06:37:37;99785.38;;;-1.27;76.81
9129;BME280;4599;50.906;6.786;2023-12-04T06:41:40;99791.19;;;-1.25;77.36
9129;BME280;4599;50.906;6.786;2023-12-04T06:45:43;99774.41;;;-1.25;77.26
9129;BME280;4599;50.906;6.786;2023-12-04T06:49:45;99762.84;;;-1.30;77.41
9129;BME280;4599;50.906;6.786;2023-12-04T06:53:47;99761.84;;;-1.25;76.45
9129;BME280;4599;50.906;6.786;2023-12-04T06:57:48;99753.47;;;-1.25;76.50
9129;BME280;4599;50.906;6.786;2023-12-04T07:01:53;99765.72;;;-1.16;76.67
9129;BME280;4599;50.906;6.786;2023-12-04T07:05:55;99751.25;;;-1.10;76.17
9129;BME280;4599;50.906;6.786;2023-12-04T07:09:57;99742.09;;;-1.11;75.80
9129;BME280;4599;50.906;6.786;2023-12-04T07:13:58;99743.53;;;-1.04;75.44
9129;BME280;4599;50.906;6.786;2023-12-04T07:18:03;99733.47;;;-1.04;75.11
9129;BME280;4599;50.906;6.786;2023-12-04T07:22:05;99744.06;;;-0.95;74.85
9129;BME280;4599;50.906;6.786;2023-12-04T07:26:07;99735.66;;;-0.94;74.22
9129;BME280;4599;50.906;6.786;2023-12-04T07:30:09;99732.88;;;-0.87;73.87
9129;BME280;4599;50.906;6.786;2023-12-04T07:34:13;99738.66;;;-0.85;73.96
9129;BME280;4599;50.906;6.786;2023-12-04T07:38:15;99735.94;;;-0.79;73.58
9129;BME280;4599;50.906;6.786;2023-12-04T07:42:17;99732.66;;;-0.81;73.93
9129;BME280;4599;50.906;6.786;2023-12-04T07:46:18;99729.00;;;-0.72;73.63
9129;BME280;4599;50.906;6.786;2023-12-04T07:50:21;99746.66;;;-0.74;72.54
9129;BME280;4599;50.906;6.786;2023-12-04T07:54:23;99734.78;;;-0.70;73.07
9129;BME280;4599;50.906;6.786;2023-12-04T07:58:24;99726.34;;;-0.68;72.95
9129;BME280;4599;50.906;6.786;2023-12-04T08:02:26;99726.94;;;-0.61;72.71
9129;BME280;4599;50.906;6.786;2023-12-04T08:06:29;99718.22;;;-0.53;72.33
9129;BME280;4599;50.906;6.786;2023-12-04T08:10:31;99725.25;;;-0.61;72.60
9129;BME280;4599;50.906;6.786;2023-12-04T08:14:33;99732.66;;;-0.58;72.58
9129;BME280;4599;50.906;6.786;2023-12-04T08:18:35;99728.47;;;-0.57;72.12
9129;BME280;4599;50.906;6.786;2023-12-04T08:22:38;99715.09;;;-0.59;71.87
9129;BME280;4599;50.906;6.786;2023-12-04T08:26:40;99706.84;;;-0.63;71.95
9129;BME280;4599;50.906;6.786;2023-12-04T08:30:41;99697.66;;;-0.64;72.13
9129;BME280;4599;50.906;6.786;2023-12-04T08:34:43;99702.59;;;-0.61;72.47
9129;BME280;4599;50.906;6.786;2023-12-04T08:38:46;99690.94;;;-0.63;72.91
9129;BME280;4599;50.906;6.786;2023-12-04T08:42:48;99692.13;;;-0.73;72.76
9129;BME280;4599;50.906;6.786;2023-12-04T08:46:50;99677.88;;;-0.73;72.44
9129;BME280;4599;50.906;6.786;2023-12-04T08:50:51;99682.75;;;-0.68;72.55
9129;BME280;4599;50.906;6.786;2023-12-04T08:54:54;99682.75;;;-0.68;72.02
9129;BME280;4599;50.906;6.786;2023-12-04T08:58:57;99677.75;;;-0.70;71.71
9129;BME280;4599;50.906;6.786;2023-12-04T09:02:58;99679.06;;;-0.60;71.99
9129;BME280;4599;50.906;6.786;2023-12-04T09:07:11;99681.09;;;-0.69;71.59
9129;BME280;4599;50.906;6.786;2023-12-04T09:11:34;99651.84;;;-0.72;71.92
9129;BME280;4599;50.906;6.786;2023-12-04T09:15:35;99664.16;;;-0.64;71.91
9129;BME280;4599;50.906;6.786;2023-12-04T09:19:37;99664.03;;;-0.61;71.89
9129;BME280;4599;50.906;6.786;2023-12-04T09:23:39;99653.13;;;-0.62;71.20
9129;BME280;4599;50.906;6.786;2023-12-04T09:27:43;99648.22;;;-0.65;71.13
9129;BME280;4599;50.906;6.786;2023-12-04T09:31:45;99642.00;;;-0.56;70.69
9129;BME280;4599;50.906;6.786;2023-12-04T09:35:46;99641.81;;;-0.50;70.94
9129;BME280;4599;50.906;6.786;2023-12-04T09:39:47;99641.19;;;-0.57;70.46
9129;BME280;4599;50.906;6.786;2023-12-04T09:43:51;99625.69;;;-0.46;70.37
9129;BME280;4599;50.906;6.786;2023-12-04T09:47:53;99616.81;;;-0.33;70.20
9129;BME280;4599;50.906;6.786;2023-12-04T09:51:57;99603.56;;;-0.38;70.31
9129;BME280;4599;50.906;6.786;2023-12-04T09:56:03;99601.75;;;-0.34;70.00
9129;BME280;4599;50.906;6.786;2023-12-04T10:00:07;99596.47;;;-0.28;70.05
9129;BME280;4599;50.906;6.786;2023-12-04T10:04:10;99601.31;;;-0.24;70.03
9129;BME280;4599;50.906;6.786;2023-12-04T10:08:12;99579.44;;;-0.22;70.12
9129;BME280;4599;50.906;6.786;2023-12-04T10:12:13;99595.25;;;-0.18;69.46
9129;BME280;4599;50.906;6.786;2023-12-04T10:16:35;99596.00;;;-0.16;69.19
9129;BME280;4599;50.906;6.786;2023-12-04T10:20:51;99591.69;;;-0.14;69.17
9129;BME280;4599;50.906;6.786;2023-12-04T10:24:52;99586.22;;;-0.24;69.95
9129;BME280;4599;50.906;6.786;2023-12-04T10:29:01;99578.66;;;-0.24;69.49
9129;BME280;4599;50.906;6.786;2023-12-04T10:33:06;99561.91;;;-0.25;70.04
9129;BME280;4599;50.906;6.786;2023-12-04T10:37:09;99553.00;;;-0.12;69.51
9129;BME280;4599;50.906;6.786;2023-12-04T10:41:14;99552.75;;;-0.06;69.76
9129;BME280;4599;50.906;6.786;2023-12-04T10:45:16;99548.41;;;-0.02;70.47
9129;BME280;4599;50.906;6.786;2023-12-04T10:49:20;99551.91;;;-0.06;70.72
9129;BME280;4599;50.906;6.786;2023-12-04T10:53:21;99550.09;;;-0.03;70.44
9129;BME280;4599;50.906;6.786;2023-12-04T10:57:26;99543.22;;;0.01;70.99
9129;BME280;4599;50.906;6.786;2023-12-04T11:01:28;99537.63;;;-0.06;72.66
9129;BME280;4599;50.906;6.786;2023-12-04T11:05:37;99538.34;;;-0.22;74.65
9129;BME280;4599;50.906;6.786;2023-12-04T11:09:39;99534.31;;;-0.26;75.45
9129;BME280;4599;50.906;6.786;2023-12-04T11:13:42;99527.38;;;-0.21;76.24
9129;BME280;4599;50.906;6.786;2023-12-04T11:17:49;99523.03;;;-0.18;77.72
9129;BME280;4599;50.906;6.786;2023-12-04T11:21:58;99507.88;;;-0.36;79.98
9129;BME280;4599;50.906;6.786;2023-12-04T11:26:00;99492.81;;;-0.38;82.00
9129;BME280;4599;50.906;6.786;2023-12-04T11:30:03;99494.47;;;-0.57;84.16
9129;BME280;4599;50.906;6.786;2023-12-04T11:34:08;99469.25;;;-0.77;86.22
9129;BME280;4599;50.906;6.786;2023-12-04T11:38:14;99472.25;;;-0.89;87.12
9129;BME280;4599;50.906;6.786;2023-12-04T11:42:18;99456.19;;;-0.85;87.63
9129;BME280;4599;50.906;6.786;2023-12-04T11:46:22;99442.38;;;-0.97;88.19
9129;BME280;4599;50.906;6.786;2023-12-04T11:50:24;99437.97;;;-0.92;87.48
9129;BME280;4599;50.906;6.786;2023-12-04T11:54:28;99435.97;;;-0.84;86.66
9129;BME280;4599;50.906;6.786;2023-12-04T11:58:30;99431.34;;;-0.73;85.92
9129;BME280;4599;50.906;6.786;2023-12-04T12:02:31;99415.16;;;-0.67;84.73
9129;BME280;4599;50.906;6.786;2023-12-04T12:06:54;99401.97;;;-0.52;83.63
9129;BME280;4599;50.906;6.786;2023-12-04T12:10:58;99397.56;;;-0.47;83.35
9129;BME280;4599;50.906;6.786;2023-12-04T12:14:59;99387.56;;;-0.48;82.96
9129;BME280;4599;50.906;6.786;2023-12-04T12:19:01;99390.44;;;-0.37;82.29
9129;BME280;4599;50.906;6.786;2023-12-04T12:23:03;99386.03;;;-0.32;82.41
9129;BME280;4599;50.906;6.786;2023-12-04T12:27:06;99398.38;;;-0.26;82.42
9129;BME280;4599;50.906;6.786;2023-12-04T12:31:10;99374.00;;;-0.26;82.37
9129;BME280;4599;50.906;6.786;2023-12-04T12:35:12;99372.22;;;-0.24;82.96
9129;BME280;4599;50.906;6.786;2023-12-04T12:39:14;99362.09;;;-0.22;82.86
9129;BME280;4599;50.906;6.786;2023-12-04T12:43:20;99360.06;;;-0.14;83.05
9129;BME280;4599;50.906;6.786;2023-12-04T12:47:22;99351.75;;;-0.16;83.33
9129;BME280;4599;50.906;6.786;2023-12-04T12:51:25;99339.31;;;-0.19;83.58
9129;BME280;4599;50.906;6.786;2023-12-04T12:55:27;99322.50;;;-0.19;83.90
9129;BME280;4599;50.906;6.786;2023-12-04T12:59:30;99330.19;;;-0.22;84.17
9129;BME280;4599;50.906;6.786;2023-12-04T13:03:32;99325.72;;;-0.15;84.20
9129;BME280;4599;50.906;6.786;2023-12-04T13:07:33;99307.81;;;-0.09;84.35
9129;BME280;4599;50.906;6.786;2023-12-04T13:11:35;99299.50;;;-0.11;84.47
9129;BME280;4599;50.906;6.786;2023-12-04T13:15:38;99264.25;;;-0.30;84.16
9129;BME280;4599;50.906;6.786;2023-12-04T13:19:39;99277.78;;;-0.14;84.93
9129;BME280;4599;50.906;6.786;2023-12-04T13:23:41;99270.84;;;-0.09;84.81
9129;BME280;4599;50.906;6.786;2023-12-04T13:27:43;99234.44;;;-0.02;84.95
9129;BME280;4599;50.906;6.786;2023-12-04T13:31:46;99227.69;;;-0.01;84.89
9129;BME280;4599;50.906;6.786;2023-12-04T13:35:47;99229.41;;;-0.02;84.85
9129;BME280;4599;50.906;6.786;2023-12-04T13:39:57;99225.69;;;0.06;84.95
9129;BME280;4599;50.906;6.786;2023-12-04T13:44:32;99233.06;;;0.10;84.95
9129;BME280;4599;50.906;6.786;2023-12-04T13:53:52;99226.38;;;0.09;84.61
9129;BME280;4599;50.906;6.786;2023-12-04T13:58:02;99220.22;;;0.15;84.39
9129;BME280;4599;50.906;6.786;2023-12-04T14:02:04;99219.03;;;0.22;84.42
9129;BME280;4599;50.906;6.786;2023-12-04T14:06:07;99200.75;;;0.18;84.38
9129;BME280;4599;50.906;6.786;2023-12-04T14:10:11;99205.09;;;0.15;84.32
9129;BME280;4599;50.906;6.786;2023-12-04T14:14:12;99195.28;;;0.10;84.66
9129;BME280;4599;50.906;6.786;2023-12-04T14:18:14;99185.72;;;0.17;84.48
9129;BME280;4599;50.906;6.786;2023-12-04T14:22:16;99174.59;;;0.21;84.74
9129;BME280;4599;50.906;6.786;2023-12-04T14:26:19;99175.50;;;0.20;84.25
9129;BME280;4599;50.906;6.786;2023-12-04T14:30:20;99168.66;;;0.22;84.20
9129;BME280;4599;50.906;6.786;2023-12-04T14:34:22;99154.97;;;0.10;83.84
9129;BME280;4599;50.906;6.786;2023-12-04T14:38:24;99145.72;;;0.11;84.28
9129;BME280;4599;50.906;6.786;2023-12-04T14:42:27;99136.88;;;0.02;84.15
9129;BME280;4599;50.906;6.786;2023-12-04T14:46:29;99134.44;;;0.00;84.83
9129;BME280;4599;50.906;6.786;2023-12-04T14:50:31;99138.22;;;0.09;84.85
9129;BME280;4599;50.906;6.786;2023-12-04T14:54:32;99136.72;;;0.05;85.52
9129;BME280;4599;50.906;6.786;2023-12-04T14:58:35;99131.19;;;-0.02;85.19
9129;BME280;4599;50.906;6.786;2023-12-04T15:02:37;99124.50;;;-0.03;85.70
9129;BME280;4599;50.906;6.786;2023-12-04T15:06:41;99126.34;;;-0.06;87.21
9129;BME280;4599;50.906;6.786;2023-12-04T15:10:43;99115.97;;;-0.17;88.48
9129;BME280;4599;50.906;6.786;2023-12-04T15:14:46;99105.75;;;-0.31;89.95
9129;BME280;4599;50.906;6.786;2023-12-04T15:18:48;99112.22;;;-0.26;89.75
9129;BME280;4599;50.906;6.786;2023-12-04T15:22:50;99109.19;;;-0.32;89.32
9129;BME280;4599;50.906;6.786;2023-12-04T15:26:51;99109.69;;;-0.26;89.82
9129;BME280;4599;50.906;6.786;2023-12-04T15:30:54;99099.53;;;-0.24;90.13
9129;BME280;4599;50.906;6.786;2023-12-04T15:34:56;99091.69;;;-0.35;90.54
9129;BME280;4599;50.906;6.786;2023-12-04T15:39:00;99078.22;;;-0.34;90.76
9129;BME280;4599;50.906;6.786;2023-12-04T15:43:01;99078.88;;;-0.31;91.08
9129;BME280;4599;50.906;6.786;2023-12-04T15:47:05;99066.00;;;-0.25;90.75
9129;BME280;4599;50.906;6.786;2023-12-04T15:51:07;99072.22;;;-0.32;90.72
9129;BME280;4599;50.906;6.786;2023-12-04T15:55:08;99079.25;;;-0.21;90.33
9129;BME280;4599;50.906;6.786;2023-12-04T15:59:10;99077.19;;;-0.13;89.47
9129;BME280;4599;50.906;6.786;2023-12-04T16:03:13;99071.94;;;-0.09;89.06
9129;BME280;4599;50.906;6.786;2023-12-04T16:07:15;99076.22;;;-0.11;88.57
9129;BME280;4599;50.906;6.786;2023-12-04T16:11:17;99082.72;;;-0.07;88.07
9129;BME280;4599;50.906;6.786;2023-12-04T16:15:19;99069.03;;;-0.01;87.61
9129;BME280;4599;50.906;6.786;2023-12-04T16:19:22;99083.94;;;0.04;87.38
9129;BME280;4599;50.906;6.786;2023-12-04T16:23:23;99066.97;;;0.07;86.97
9129;BME280;4599;50.906;6.786;2023-12-04T16:27:25;99059.31;;;0.09;86.87
9129;BME280;4599;50.906;6.786;2023-12-04T16:31:27;99062.81;;;0.06;86.94
9129;BME280;4599;50.906;6.786;2023-12-04T16:35:30;99044.16;;;0.10;87.10
9129;BME280;4599;50.906;6.786;2023-12-04T16:39:32;99036.66;;;0.09;87.44
9129;BME280;4599;50.906;6.786;2023-12-04T16:43:34;99047.25;;;0.15;86.58
9129;BME280;4599;50.906;6.786;2023-12-04T16:47:35;99050.00;;;0.11;86.75
9129;BME280;4599;50.906;6.786;2023-12-04T16:51:38;99037.31;;;0.12;86.98
9129;BME280;4599;50.906;6.786;2023-12-04T16:55:40;99027.34;;;0.11;86.97
9129;BME280;4599;50.906;6.786;2023-12-04T16:59:43;99024.16;;;0.07;87.50
9129;BME280;4599;50.906;6.786;2023-12-04T17:03:44;99016.81;;;0.03;88.17
9129;BME280;4599;50.906;6.786;2023-12-04T17:07:47;99011.78;;;0.03;89.07
9129;BME280;4599;50.906;6.786;2023-12-04T17:11:50;99004.75;;;0.09;88.48
9129;BME280;4599;50.906;6.786;2023-12-04T17:15:51;99007.41;;;0.06;89.04
9129;BME280;4599;50.906;6.786;2023-12-04T17:19:53;99004.91;;;0.06;89.35
9129;BME280;4599;50.906;6.786;2023-12-04T17:23:56;99005.06;;;0.03;90.14
9129;BME280;4599;50.906;6.786;2023-12-04T17:27:58;98994.22;;;0.01;90.69
9129;BME280;4599;50.906;6.786;2023-12-04T17:31:59;98995.34;;;-0.05;91.21
9129;BME280;4599;50.906;6.786;2023-12-04T17:36:01;98988.91;;;-0.10;91.93
9129;BME280;4599;50.906;6.786;2023-12-04T17:40:05;98978.28;;;-0.15;92.47
9129;BME280;4599;50.906;6.786;2023-12-04T17:44:06;98978.03;;;-0.11;92.75
9129;BME280;4599;50.906;6.786;2023-12-04T17:48:08;98970.56;;;-0.12;93.40
9129;BME280;4599;50.906;6.786;2023-12-04T17:52:10;98964.56;;;-0.10;93.32
9129;BME280;4599;50.906;6.786;2023-12-04T17:56:13;98961.22;;;-0.10;93.50
9129;BME280;4599;50.906;6.786;2023-12-04T18:00:15;98939.19;;;-0.22;93.71
9129;BME280;4599;50.906;6.786;2023-12-04T18:04:16;98948.06;;;-0.15;93.91
9129;BME280;4599;50.906;6.786;2023-12-04T18:08:19;98930.44;;;-0.15;94.01
9129;BME280;4599;50.906;6.786;2023-12-04T18:12:22;98930.19;;;-0.11;94.54
9129;BME280;4599;50.906;6.786;2023-12-04T18:16:24;98936.03;;;-0.10;94.30
9129;BME280;4599;50.906;6.786;2023-12-04T18:20:28;98921.19;;;-0.15;94.66
9129;BME280;4599;50.906;6.786;2023-12-04T18:24:29;98919.56;;;-0.16;94.74
9129;BME280;4599;50.906;6.786;2023-12-04T18:28:33;98906.97;;;-0.16;94.91
9129;BME280;4599;50.906;6.786;2023-12-04T18:32:35;98906.88;;;-0.14;94.71
9129;BME280;4599;50.906;6.786;2023-12-04T18:36:41;98906.56;;;-0.08;94.77
9129;BME280;4599;50.906;6.786;2023-12-04T18:40:43;98904.06;;;-0.08;95.09
9129;BME280;4599;50.906;6.786;2023-12-04T18:44:47;98881.31;;;-0.07;95.52
9129;BME280;4599;50.906;6.786;2023-12-04T18:48:49;98882.78;;;-0.03;95.10
9129;BME280;4599;50.906;6.786;2023-12-04T18:52:51;98874.00;;;0.05;94.69
9129;BME280;4599;50.906;6.786;2023-12-04T18:56:53;98885.88;;;0.03;95.12
9129;BME280;4599;50.906;6.786;2023-12-04T19:00:56;98885.78;;;0.04;95.03
9129;BME280;4599;50.906;6.786;2023-12-04T19:04:59;98865.50;;;0.07;95.23
9129;BME280;4599;50.906;6.786;2023-12-04T19:09:02;98865.25;;;0.12;94.92
9129;BME280;4599;50.906;6.786;2023-12-04T19:13:03;98876.94;;;0.13;94.66
9129;BME280;4599;50.906;6.786;2023-12-04T19:17:06;98853.28;;;0.15;94.62
9129;BME280;4599;50.906;6.786;2023-12-04T19:21:08;98864.03;;;0.19;94.74
9129;BME280;4599;50.906;6.786;2023-12-04T19:25:10;98846.38;;;0.19;94.85
9129;BME280;4599;50.906;6.786;2023-12-04T19:29:12;98843.69;;;0.22;94.57
9129;BME280;4599;50.906;6.786;2023-12-04T19:33:23;98851.13;;;0.25;94.34
9129;BME280;4599;50.906;6.786;2023-12-04T19:37:31;98847.50;;;0.29;94.64
9129;BME280;4599;50.906;6.786;2023-12-04T19:41:32;98837.38;;;0.30;94.54
9129;BME280;4599;50.906;6.786;2023-12-04T19:45:34;98830.13;;;0.40;94.30
9129;BME280;4599;50.906;6.786;2023-12-04T19:49:42;98836.97;;;0.38;94.54
9129;BME280;4599;50.906;6.786;2023-12-04T19:53:43;98828.25;;;0.43;94.05
9129;BME280;4599;50.906;6.786;2023-12-04T19:57:45;98835.78;;;0.43;94.53
9129;BME280;4599;50.906;6.786;2023-12-04T20:01:46;98834.66;;;0.49;94.54
9129;BME280;4599;50.906;6.786;2023-12-04T20:05:49;98827.34;;;0.44;94.42
9129;BME280;4599;50.906;6.786;2023-12-04T20:09:51;98818.91;;;0.45;94.58
9129;BME280;4599;50.906;6.786;2023-12-04T20:13:53;98820.38;;;0.49;94.55
9129;BME280;4599;50.906;6.786;2023-12-04T20:17:55;98830.00;;;0.57;94.78
9129;BME280;4599;50.906;6.786;2023-12-04T20:21:58;98823.59;;;0.52;95.33
9129;BME280;4599;50.906;6.786;2023-12-04T20:26:00;98817.66;;;0.53;95.00
9129;BME280;4599;50.906;6.786;2023-12-04T20:30:02;98810.00;;;0.54;95.53
9129;BME280;4599;50.906;6.786;2023-12-04T20:34:04;98805.88;;;0.53;95.76
9129;BME280;4599;50.906;6.786;2023-12-04T20:38:08;98793.13;;;0.56;95.44
9129;BME280;4599;50.906;6.786;2023-12-04T20:42:09;98797.22;;;0.57;95.86
9129;BME280;4599;50.906;6.786;2023-12-04T20:46:11;98789.66;;;0.57;95.88
9129;BME280;4599;50.906;6.786;2023-12-04T20:50:12;98786.19;;;0.60;96.14
9129;BME280;4599;50.906;6.786;2023-12-04T20:54:16;98783.25;;;0.67;95.78
9129;BME280;4599;50.906;6.786;2023-12-04T20:58:18;98779.81;;;0.68;95.98
9129;BME280;4599;50.906;6.786;2023-12-04T21:02:19;98778.91;;;0.69;95.93
9129;BME280;4599;50.906;6.786;2023-12-04T21:06:21;98762.91;;;0.70;96.11
9129;BME280;4599;50.906;6.786;2023-12-04T21:10:24;98773.63;;;0.74;96.17
9129;BME280;4599;50.906;6.786;2023-12-04T21:14:25;98771.81;;;0.76;95.89
9129;BME280;4599;50.906;6.786;2023-12-04T21:18:27;98776.78;;;0.77;96.44
9129;BME280;4599;50.906;6.786;2023-12-04T21:22:29;98761.38;;;0.82;96.07
9129;BME280;4599;50.906;6.786;2023-12-04T21:26:32;98758.69;;;0.85;96.32
9129;BME280;4599;50.906;6.786;2023-12-04T21:30:34;98755.34;;;0.84;96.24
9129;BME280;4599;50.906;6.786;2023-12-04T21:34:35;98769.56;;;0.85;96.18
9129;BME280;4599;50.906;6.786;2023-12-04T21:38:37;98755.25;;;1.00;95.75
9129;BME280;4599;50.906;6.786;2023-12-04T21:42:40;98761.38;;;0.96;96.01
9129;BME280;4599;50.906;6.786;2023-12-04T21:46:42;98746.88;;;0.99;96.43
9129;BME280;4599;50.906;6.786;2023-12-04T21:50:44;98744.28;;;1.01;96.08
9129;BME280;4599;50.906;6.786;2023-12-04T21:54:45;98747.25;;;1.08;95.48
9129;BME280;4599;50.906;6.786;2023-12-04T21:58:48;98741.41;;;1.07;95.21
9129;BME280;4599;50.906;6.786;2023-12-04T22:02:50;98738.88;;;1.07;95.90
9129;BME280;4599;50.906;6.786;2023-12-04T22:06:51;98733.38;;;1.15;95.38
9129;BME280;4599;50.906;6.786;2023-12-04T22:10:53;98725.00;;;1.14;96.08